Volente, Texas
Current Conditions -  °F | °C
As of 12:15 PM on Wednesday 28 Jan 2015 (Local Time) from KRYW Reporting Station
Clear Clear  
Wind Chill: 23°   Ceiling: Unl
Heat Index: 23°   Visibility: 10mi
Dew Point:   Wind: 6mph
Humidity: 32%   Direction: 200°SSW
Pressure: 30.17"   Gusts: NA
Location:  30.558°N, 97.9247°W
Report Text: KRYW 281815Z AUTO 20005KT 10SM CLR 23/06 A3017 RMK AO2 T02330059
Loading
Personal Weather Stations






























Interactive Weather Map New forecast layout! Learn more

10-Day Weather Forecast

Advertisements
Track Severe Weather on mobile